createdAt,value
2023-01-25T00:01:54.542Z,-0.13
2023-01-25T00:04:24.124Z,-0.13
2023-01-25T00:06:52.642Z,-0.12
2023-01-25T00:09:23.891Z,-0.11
2023-01-25T00:11:53.444Z,-0.09
2023-01-25T00:14:22.106Z,-0.09
2023-01-25T00:16:51.811Z,-0.11
2023-01-25T00:19:20.817Z,-0.11
2023-01-25T00:21:49.104Z,-0.10
2023-01-25T00:24:17.969Z,-0.07
2023-01-25T00:26:46.375Z,-0.05
2023-01-25T00:29:15.371Z,-0.01
2023-01-25T00:31:57.051Z,-0.02
2023-01-25T00:34:25.356Z,-0.03
2023-01-25T00:37:11.120Z,-0.02
2023-01-25T00:39:41.766Z,-0.05
2023-01-25T00:42:15.776Z,-0.05
2023-01-25T00:44:48.042Z,-0.04
2023-01-25T00:47:17.470Z,-0.06
2023-01-25T00:49:47.580Z,-0.08
2023-01-25T00:52:16.067Z,-0.12
2023-01-25T00:54:44.663Z,-0.17
2023-01-25T00:57:13.243Z,-0.22
2023-01-25T00:59:44.799Z,-0.25
2023-01-25T01:02:14.406Z,-0.26
2023-01-25T01:04:43.413Z,-0.28
2023-01-25T01:07:14.051Z,-0.32
2023-01-25T01:09:42.632Z,-0.34
2023-01-25T01:12:11.438Z,-0.37
2023-01-25T01:14:39.912Z,-0.38
2023-01-25T01:17:08.194Z,-0.38
2023-01-25T01:19:36.370Z,-0.41
2023-01-25T01:22:04.973Z,-0.41
2023-01-25T01:24:33.248Z,-0.40
2023-01-25T01:27:01.526Z,-0.38
2023-01-25T01:29:30.321Z,-0.35
2023-01-25T01:31:59.036Z,-0.32
2023-01-25T01:34:28.625Z,-0.26
2023-01-25T01:36:56.801Z,-0.22
2023-01-25T01:39:25.391Z,-0.19
2023-01-25T01:41:53.799Z,-0.15
2023-01-25T01:44:45.398Z,-0.16
2023-01-25T01:47:22.382Z,-0.19
2023-01-25T01:49:56.325Z,-0.23
2023-01-25T01:52:31.036Z,-0.25
2023-01-25T01:55:05.541Z,-0.28
2023-01-25T01:57:43.642Z,-0.31
2023-01-25T02:00:18.162Z,-0.33
2023-01-25T02:02:50.371Z,-0.36
2023-01-25T02:05:40.928Z,-0.39
2023-01-25T02:08:13.680Z,-0.42
2023-01-25T02:10:44.402Z,-0.47
2023-01-25T02:13:13.157Z,-0.47
2023-01-25T02:15:45.437Z,-0.47
2023-01-25T02:18:14.930Z,-0.46
2023-01-25T02:20:46.399Z,-0.47
2023-01-25T02:23:32.371Z,-0.45
2023-01-25T02:26:04.384Z,-0.44
2023-01-25T02:28:53.819Z,-0.41
2023-01-25T02:31:25.415Z,-0.39
2023-01-25T02:33:54.573Z,-0.33
2023-01-25T02:36:25.806Z,-0.25
2023-01-25T02:39:01.662Z,-0.18
2023-01-25T02:41:36.876Z,-0.15
2023-01-25T02:44:12.730Z,-0.12
2023-01-25T02:46:45.163Z,-0.11
2023-01-25T02:49:15.465Z,-0.08
2023-01-25T02:51:47.017Z,-0.04
2023-01-25T02:54:18.063Z,-0.07
2023-01-25T02:56:47.120Z,-0.11
2023-01-25T02:59:15.854Z,-0.13
2023-01-25T03:01:48.348Z,-0.18
2023-01-25T03:04:17.679Z,-0.22
2023-01-25T03:06:46.022Z,-0.25
2023-01-25T03:09:14.506Z,-0.29
2023-01-25T03:11:46.578Z,-0.30
2023-01-25T03:14:15.171Z,-0.34
2023-01-25T03:16:43.352Z,-0.36
2023-01-25T03:19:11.634Z,-0.38
2023-01-25T03:21:41.961Z,-0.40
2023-01-25T03:24:11.540Z,-0.42
2023-01-25T03:27:03.085Z,-0.44
2023-01-25T03:29:37.961Z,-0.45
2023-01-25T03:32:09.877Z,-0.47
2023-01-25T03:34:38.497Z,-0.51
2023-01-25T03:37:07.263Z,-0.50
2023-01-25T03:39:35.769Z,-0.50
2023-01-25T03:42:04.872Z,-0.50
2023-01-25T03:44:33.440Z,-0.50
2023-01-25T03:47:01.982Z,-0.45
2023-01-25T03:49:30.720Z,-0.40
2023-01-25T03:51:59.205Z,-0.40
2023-01-25T03:54:34.853Z,-0.43
2023-01-25T03:57:04.478Z,-0.47
2023-01-25T03:59:38.890Z,-0.51
2023-01-25T04:02:07.527Z,-0.51
2023-01-25T04:04:36.377Z,-0.47
2023-01-25T04:07:05.276Z,-0.42
2023-01-25T04:09:34.478Z,-0.38
2023-01-25T04:12:02.963Z,-0.35
2023-01-25T04:14:44.048Z,-0.33
2023-01-25T04:17:17.023Z,-0.34
2023-01-25T04:19:51.445Z,-0.35
2023-01-25T04:22:21.369Z,-0.36
2023-01-25T04:24:50.786Z,-0.37
2023-01-25T04:27:19.261Z,-0.44
2023-01-25T04:29:56.651Z,-0.51
2023-01-25T04:32:26.063Z,-0.51
2023-01-25T04:34:54.756Z,-0.51
2023-01-25T04:37:24.976Z,-0.51
2023-01-25T04:39:58.997Z,-0.51
2023-01-25T04:42:28.099Z,-0.56
2023-01-25T04:44:57.905Z,-0.57
2023-01-25T04:47:26.195Z,-0.60
2023-01-25T04:49:54.474Z,-0.64
2023-01-25T04:52:25.315Z,-0.65
2023-01-25T04:54:53.701Z,-0.64
2023-01-25T04:57:22.694Z,-0.63
2023-01-25T04:59:53.430Z,-0.61
2023-01-25T05:02:22.828Z,-0.59
2023-01-25T05:04:51.532Z,-0.58
2023-01-25T05:07:21.552Z,-0.58
2023-01-25T05:09:50.055Z,-0.57
2023-01-25T05:12:20.683Z,-0.55
2023-01-25T05:14:58.596Z,-0.54
2023-01-25T05:17:27.071Z,-0.53
2023-01-25T05:19:55.351Z,-0.53
2023-01-25T05:22:24.667Z,-0.55
2023-01-25T05:24:54.371Z,-0.55
2023-01-25T05:27:23.063Z,-0.54
2023-01-25T05:29:58.197Z,-0.54
2023-01-25T05:33:05.569Z,-0.53
2023-01-25T05:35:34.701Z,-0.52
2023-01-25T05:38:03.463Z,-0.51
2023-01-25T05:40:31.746Z,-0.50
2023-01-25T05:43:01.260Z,-0.50
2023-01-25T05:45:31.385Z,-0.51
2023-01-25T05:48:00.022Z,-0.45
2023-01-25T05:50:28.484Z,-0.42
2023-01-25T05:53:07.789Z,-0.41
2023-01-25T05:55:37.162Z,-0.37
2023-01-25T05:58:09.066Z,-0.34
2023-01-25T06:00:37.650Z,-0.34
2023-01-25T06:03:07.636Z,-0.33
2023-01-25T06:05:38.002Z,-0.34
2023-01-25T06:08:06.493Z,-0.35
2023-01-25T06:10:43.885Z,-0.35
2023-01-25T06:13:12.271Z,-0.36
2023-01-25T06:15:40.682Z,-0.37
2023-01-25T06:18:31.276Z,-0.38
2023-01-25T06:21:21.934Z,-0.39
2023-01-25T06:23:50.329Z,-0.41
2023-01-25T06:26:18.801Z,-0.44
2023-01-25T06:28:47.905Z,-0.46
2023-01-25T06:31:18.704Z,-0.47
2023-01-25T06:33:51.288Z,-0.45
2023-01-25T06:36:23.060Z,-0.44
2023-01-25T06:38:52.799Z,-0.40
2023-01-25T06:41:21.599Z,-0.32
2023-01-25T06:43:53.354Z,-0.24
2023-01-25T06:46:22.343Z,-0.19
2023-01-25T06:48:50.769Z,-0.15
2023-01-25T06:51:19.530Z,-0.09
2023-01-25T06:53:48.346Z,-0.05
2023-01-25T06:56:19.957Z,-0.02
2023-01-25T06:58:50.539Z,0.01
2023-01-25T07:01:27.699Z,0.03
2023-01-25T07:03:58.428Z,0.05
2023-01-25T07:06:32.091Z,0.06
2023-01-25T07:09:13.534Z,0.07
2023-01-25T07:11:41.921Z,0.02
2023-01-25T07:14:10.300Z,-0.05
2023-01-25T07:16:38.824Z,-0.08
2023-01-25T07:19:08.204Z,-0.10
2023-01-25T07:21:36.781Z,-0.10
2023-01-25T07:24:05.842Z,-0.12
2023-01-25T07:26:34.279Z,-0.12
2023-01-25T07:29:02.776Z,-0.14
2023-01-25T07:31:31.478Z,-0.16
2023-01-25T07:33:59.826Z,-0.20
2023-01-25T07:36:28.006Z,-0.24
2023-01-25T07:38:57.827Z,-0.27
2023-01-25T07:41:26.636Z,-0.27
2023-01-25T07:43:55.960Z,-0.29
2023-01-25T07:46:43.854Z,-0.29
2023-01-25T07:49:12.043Z,-0.29
2023-01-25T07:51:40.433Z,-0.24
2023-01-25T07:54:12.022Z,-0.18
2023-01-25T07:56:41.020Z,-0.12
2023-01-25T07:59:11.203Z,-0.05
2023-01-25T08:01:39.617Z,0.01
2023-01-25T08:04:08.074Z,0.08
2023-01-25T08:06:40.780Z,0.07
2023-01-25T08:09:14.374Z,0.02
2023-01-25T08:11:43.361Z,-0.06
2023-01-25T08:14:12.067Z,-0.02
2023-01-25T08:16:40.239Z,0.06
2023-01-25T08:19:11.223Z,0.08
2023-01-25T08:21:39.453Z,0.08
2023-01-25T08:24:08.672Z,0.10
2023-01-25T08:26:38.152Z,0.09
2023-01-25T08:29:07.033Z,0.10
2023-01-25T08:31:36.148Z,0.07
2023-01-25T08:34:07.619Z,0.05
2023-01-25T08:36:35.898Z,0.03
2023-01-25T08:39:06.851Z,0.02
2023-01-25T08:41:36.242Z,0.03
2023-01-25T08:44:05.166Z,0.03
2023-01-25T08:46:34.668Z,0.02
2023-01-25T08:49:03.925Z,-0.00
2023-01-25T08:51:33.059Z,-0.01
2023-01-25T08:54:06.807Z,-0.01
2023-01-25T08:56:38.235Z,-0.02
2023-01-25T08:59:08.030Z,-0.03
2023-01-25T09:01:36.526Z,-0.04
2023-01-25T09:04:05.222Z,-0.06
2023-01-25T09:06:33.831Z,-0.05
2023-01-25T09:09:02.395Z,-0.06
2023-01-25T09:11:30.878Z,-0.07
2023-01-25T09:13:59.071Z,-0.08
2023-01-25T09:16:30.853Z,-0.07
2023-01-25T09:19:02.406Z,-0.07
2023-01-25T09:21:31.957Z,-0.05
2023-01-25T09:24:06.546Z,-0.02
2023-01-25T09:26:39.512Z,0.00
2023-01-25T09:29:08.889Z,0.05
2023-01-25T09:31:44.189Z,0.10
2023-01-25T09:34:15.113Z,0.18
2023-01-25T09:36:43.382Z,0.23
2023-01-25T09:39:14.830Z,0.28
2023-01-25T09:42:13.901Z,0.25
2023-01-25T09:44:56.023Z,0.26
2023-01-25T09:47:45.690Z,0.29
2023-01-25T09:50:17.062Z,0.34
2023-01-25T09:52:58.518Z,0.36
2023-01-25T09:55:30.701Z,0.39
2023-01-25T09:58:02.882Z,0.39
2023-01-25T10:00:37.505Z,0.42
2023-01-25T10:03:21.428Z,0.46
2023-01-25T10:05:53.761Z,0.48
2023-01-25T10:08:32.391Z,0.50
2023-01-25T10:11:12.164Z,0.54
2023-01-25T10:13:40.551Z,0.57
2023-01-25T10:16:42.242Z,0.55
2023-01-25T10:19:25.732Z,0.55
2023-01-25T10:22:00.863Z,0.56
2023-01-25T10:24:40.908Z,0.57
2023-01-25T10:27:28.738Z,0.53
2023-01-25T10:30:00.193Z,0.52
2023-01-25T10:32:35.875Z,0.53
2023-01-25T10:35:34.383Z,0.53
2023-01-25T10:38:11.810Z,0.55
2023-01-25T10:41:03.730Z,0.60
2023-01-25T10:43:32.520Z,0.66
2023-01-25T10:46:02.326Z,0.71
2023-01-25T10:48:34.771Z,0.71
2023-01-25T10:51:02.893Z,0.68
2023-01-25T10:53:35.576Z,0.67
2023-01-25T10:56:24.354Z,0.67
2023-01-25T10:59:07.565Z,0.66
2023-01-25T11:01:37.443Z,0.65
2023-01-25T11:04:25.195Z,0.66
2023-01-25T11:06:53.621Z,0.61
2023-01-25T11:09:22.275Z,0.60
2023-01-25T11:12:03.753Z,0.55
2023-01-25T11:14:34.021Z,0.49
2023-01-25T11:17:05.538Z,0.50
2023-01-25T11:19:38.012Z,0.50
2023-01-25T11:22:28.296Z,0.49
2023-01-25T11:24:56.580Z,0.52
2023-01-25T11:27:28.239Z,0.55
2023-01-25T11:30:10.027Z,0.54
2023-01-25T11:32:39.963Z,0.54
2023-01-25T11:35:26.859Z,0.57
2023-01-25T11:38:14.384Z,0.59
2023-01-25T11:40:52.891Z,0.59
2023-01-25T11:43:24.036Z,0.58
2023-01-25T11:46:31.539Z,0.56
2023-01-25T11:49:18.525Z,0.57
2023-01-25T11:52:02.567Z,0.63
2023-01-25T11:54:58.374Z,0.68
2023-01-25T11:58:00.222Z,0.73
2023-01-25T12:00:31.585Z,0.75
2023-01-25T12:03:36.634Z,0.75
2023-01-25T12:06:14.290Z,0.74
2023-01-25T12:08:59.672Z,0.74
2023-01-25T12:11:49.845Z,0.74
2023-01-25T12:14:35.218Z,0.73
2023-01-25T12:17:36.861Z,0.68
2023-01-25T12:20:22.647Z,0.66
2023-01-25T12:22:53.998Z,0.68
2023-01-25T12:25:47.449Z,0.70
2023-01-25T12:28:28.361Z,0.77
2023-01-25T12:31:19.675Z,0.79
2023-01-25T12:33:57.268Z,0.84
2023-01-25T12:36:34.418Z,0.88
2023-01-25T12:39:26.231Z,0.94
2023-01-25T12:41:54.411Z,0.95
2023-01-25T12:44:39.262Z,0.93
2023-01-25T12:47:23.722Z,0.91
2023-01-25T12:49:55.179Z,0.86
2023-01-25T12:52:41.049Z,0.83
2023-01-25T12:55:17.932Z,0.79
2023-01-25T12:58:17.138Z,0.77
2023-01-25T13:01:24.881Z,0.73
2023-01-25T13:04:25.218Z,0.75
2023-01-25T13:07:18.269Z,0.75
2023-01-25T13:09:58.519Z,0.72
2023-01-25T13:12:27.492Z,0.71
2023-01-25T13:14:55.901Z,0.69
2023-01-25T13:17:38.245Z,0.67
2023-01-25T13:20:48.712Z,0.65
2023-01-25T13:23:52.294Z,0.64
2023-01-25T13:26:28.505Z,0.62
2023-01-25T13:29:00.472Z,0.60
2023-01-25T13:31:59.040Z,0.59
2023-01-25T13:34:37.660Z,0.59
2023-01-25T13:37:19.544Z,0.61
2023-01-25T13:39:53.147Z,0.60
2023-01-25T13:42:27.268Z,0.57
2023-01-25T13:45:03.013Z,0.55
2023-01-25T13:47:39.756Z,0.49
2023-01-25T13:50:27.419Z,0.43
2023-01-25T13:53:01.394Z,0.38
2023-01-25T13:55:37.799Z,0.35
2023-01-25T13:58:21.747Z,0.34
2023-01-25T14:00:59.191Z,0.35
2023-01-25T14:03:43.371Z,0.38
2023-01-25T14:06:27.429Z,0.43
2023-01-25T14:08:59.798Z,0.48
2023-01-25T14:11:34.856Z,0.52
2023-01-25T14:14:17.129Z,0.55
2023-01-25T14:16:45.731Z,0.53
2023-01-25T14:19:32.282Z,0.51
2023-01-25T14:22:28.543Z,0.49
2023-01-25T14:25:08.319Z,0.47
2023-01-25T14:27:41.780Z,0.50
2023-01-25T14:30:19.830Z,0.44
2023-01-25T14:32:50.323Z,0.40
2023-01-25T14:36:11.624Z,0.36
2023-01-25T14:38:36.774Z,0.28
2023-01-25T14:41:28.027Z,0.25
2023-01-25T14:43:59.584Z,0.24
2023-01-25T14:46:32.780Z,0.25
2023-01-25T14:49:17.943Z,0.25
2023-01-25T14:51:53.595Z,0.23
2023-01-25T14:54:25.971Z,0.19
2023-01-25T14:57:08.577Z,0.18
2023-01-25T14:59:44.276Z,0.16
2023-01-25T15:02:54.054Z,0.14
2023-01-25T15:05:27.659Z,0.12
2023-01-25T15:08:08.232Z,0.11
2023-01-25T15:10:38.098Z,0.10
2023-01-25T15:13:14.604Z,0.07
2023-01-25T15:15:54.046Z,0.04
2023-01-25T15:19:00.916Z,0.03
2023-01-25T15:21:33.761Z,0.03
2023-01-25T15:24:06.998Z,0.04
2023-01-25T15:26:36.621Z,0.04
2023-01-25T15:29:14.014Z,0.05
2023-01-25T15:31:43.410Z,0.04
2023-01-25T15:34:16.801Z,0.03
2023-01-25T15:36:46.013Z,0.03
2023-01-25T15:39:17.353Z,0.01
2023-01-25T15:41:46.315Z,0.01
2023-01-25T15:44:15.259Z,0.01
2023-01-25T15:46:48.843Z,0.01
2023-01-25T15:49:28.012Z,-0.00
2023-01-25T15:51:56.775Z,-0.02
2023-01-25T15:54:25.409Z,-0.02
2023-01-25T15:56:59.041Z,-0.02
2023-01-25T15:59:28.292Z,-0.02
2023-01-25T16:01:56.965Z,-0.00
2023-01-25T16:04:26.492Z,-0.01
2023-01-25T16:06:55.463Z,-0.00
2023-01-25T16:09:31.141Z,0.00
2023-01-25T16:12:01.624Z,0.00
2023-01-25T16:14:31.609Z,-0.02
2023-01-25T16:17:05.836Z,-0.01
2023-01-25T16:19:34.291Z,0.00
2023-01-25T16:22:02.561Z,0.00
2023-01-25T16:24:30.740Z,0.01
2023-01-25T16:27:00.815Z,0.02
2023-01-25T16:29:29.536Z,0.05
2023-01-25T16:31:57.999Z,0.08
2023-01-25T16:34:26.439Z,0.12
2023-01-25T16:36:54.824Z,0.18
2023-01-25T16:39:28.469Z,0.23
2023-01-25T16:41:57.896Z,0.28
2023-01-25T16:44:26.416Z,0.34
2023-01-25T16:46:55.623Z,0.40
2023-01-25T16:49:27.312Z,0.43
2023-01-25T16:51:56.074Z,0.45
2023-01-25T16:54:26.106Z,0.44
2023-01-25T16:56:55.368Z,0.45
2023-01-25T16:59:24.899Z,0.47
2023-01-25T17:01:53.403Z,0.50
2023-01-25T17:04:21.996Z,0.52
2023-01-25T17:06:50.906Z,0.52
2023-01-25T17:09:25.437Z,0.50
2023-01-25T17:11:55.417Z,0.45
2023-01-25T17:14:23.748Z,0.40
2023-01-25T17:16:55.672Z,0.37
2023-01-25T17:19:24.263Z,0.32
2023-01-25T17:21:52.552Z,0.26
2023-01-25T17:24:21.946Z,0.21
2023-01-25T17:26:51.220Z,0.16
2023-01-25T17:29:19.740Z,0.12
2023-01-25T17:31:48.588Z,0.08
2023-01-25T17:34:19.804Z,0.06
2023-01-25T17:36:50.216Z,0.03
2023-01-25T17:39:19.984Z,0.01
2023-01-25T17:41:50.466Z,-0.03
2023-01-25T17:44:21.456Z,-0.07
2023-01-25T17:46:51.034Z,-0.08
2023-01-25T17:49:22.639Z,-0.12
2023-01-25T17:51:50.828Z,-0.14
2023-01-25T17:54:19.910Z,-0.16
2023-01-25T17:56:48.557Z,-0.19
2023-01-25T17:59:17.249Z,-0.21
2023-01-25T18:01:46.159Z,-0.22
2023-01-25T18:04:17.759Z,-0.23
2023-01-25T18:06:46.488Z,-0.25
2023-01-25T18:09:14.771Z,-0.26
2023-01-25T18:11:43.467Z,-0.27
2023-01-25T18:14:16.882Z,-0.29
2023-01-25T18:16:45.264Z,-0.26
2023-01-25T18:19:14.274Z,-0.25
2023-01-25T18:21:43.532Z,-0.23
2023-01-25T18:24:25.284Z,-0.20
2023-01-25T18:27:05.041Z,-0.15
2023-01-25T18:29:59.458Z,-0.12
2023-01-25T18:32:28.368Z,-0.07
2023-01-25T18:34:57.099Z,-0.03
2023-01-25T18:37:29.560Z,0.01
2023-01-25T18:39:57.915Z,0.03
2023-01-25T18:42:28.012Z,0.02
2023-01-25T18:44:56.219Z,0.04
2023-01-25T18:47:24.597Z,0.03
2023-01-25T18:49:52.988Z,0.03
2023-01-25T18:52:23.147Z,0.03
2023-01-25T18:54:51.804Z,0.01
2023-01-25T18:57:21.099Z,-0.03
2023-01-25T18:59:49.792Z,-0.06
2023-01-25T19:02:19.453Z,-0.09
2023-01-25T19:04:47.794Z,-0.11
2023-01-25T19:07:16.648Z,-0.12
2023-01-25T19:09:44.882Z,-0.13
2023-01-25T19:12:13.471Z,-0.16
2023-01-25T19:14:41.736Z,-0.19
2023-01-25T19:17:10.134Z,-0.23
2023-01-25T19:19:38.506Z,-0.26
2023-01-25T19:22:06.788Z,-0.29
2023-01-25T19:24:35.180Z,-0.30
2023-01-25T19:27:04.060Z,-0.31
2023-01-25T19:29:32.346Z,-0.33
2023-01-25T19:32:00.736Z,-0.34
2023-01-25T19:34:29.020Z,-0.36
2023-01-25T19:36:58.428Z,-0.39
2023-01-25T19:39:26.743Z,-0.40
2023-01-25T19:41:55.097Z,-0.43
2023-01-25T19:44:24.718Z,-0.43
2023-01-25T19:46:53.393Z,-0.45
2023-01-25T19:49:22.616Z,-0.44
2023-01-25T19:51:53.447Z,-0.45
2023-01-25T19:54:23.128Z,-0.49
2023-01-25T19:56:51.858Z,-0.50
2023-01-25T19:59:25.011Z,-0.51
2023-01-25T20:01:54.081Z,-0.52
2023-01-25T20:04:24.637Z,-0.53
2023-01-25T20:06:53.266Z,-0.52
2023-01-25T20:09:27.779Z,-0.53
2023-01-25T20:11:57.920Z,-0.54
2023-01-25T20:14:26.321Z,-0.54
2023-01-25T20:16:54.998Z,-0.55
2023-01-25T20:19:23.170Z,-0.54
2023-01-25T20:21:51.568Z,-0.54
2023-01-25T20:24:19.989Z,-0.52
2023-01-25T20:26:49.187Z,-0.53
2023-01-25T20:29:17.628Z,-0.55
2023-01-25T20:31:46.444Z,-0.55
2023-01-25T20:34:20.977Z,-0.54
2023-01-25T20:36:50.456Z,-0.51
2023-01-25T20:39:20.892Z,-0.49
2023-01-25T20:41:53.609Z,-0.42
2023-01-25T20:44:22.689Z,-0.39
2023-01-25T20:46:52.270Z,-0.34
2023-01-25T20:49:20.671Z,-0.28
2023-01-25T20:51:48.962Z,-0.20
2023-01-25T20:54:18.404Z,-0.14
2023-01-25T20:56:48.313Z,-0.12
2023-01-25T20:59:17.909Z,-0.06
2023-01-25T21:01:47.032Z,-0.04
2023-01-25T21:04:15.786Z,-0.03
2023-01-25T21:06:44.276Z,0.01
2023-01-25T21:09:12.963Z,0.01
2023-01-25T21:11:41.531Z,-0.01
2023-01-25T21:14:09.951Z,-0.02
2023-01-25T21:16:38.379Z,-0.03
2023-01-25T21:19:07.641Z,-0.04
2023-01-25T21:21:35.971Z,-0.12
2023-01-25T21:24:05.944Z,-0.20
2023-01-25T21:26:36.157Z,-0.23
2023-01-25T21:29:06.007Z,-0.25
2023-01-25T21:31:36.778Z,-0.28
2023-01-25T21:34:06.461Z,-0.28
2023-01-25T21:36:34.703Z,-0.30
2023-01-25T21:39:02.987Z,-0.34
2023-01-25T21:41:33.837Z,-0.42
2023-01-25T21:44:21.807Z,-0.49
2023-01-25T21:47:19.762Z,-0.53
2023-01-25T21:49:57.621Z,-0.54
2023-01-25T21:52:25.809Z,-0.56
2023-01-25T21:54:53.979Z,-0.56
2023-01-25T21:57:22.914Z,-0.56
2023-01-25T21:59:53.944Z,-0.58
2023-01-25T22:02:22.951Z,-0.58
2023-01-25T22:04:51.735Z,-0.59
2023-01-25T22:07:19.890Z,-0.60
2023-01-25T22:09:49.580Z,-0.60
2023-01-25T22:12:17.908Z,-0.60
2023-01-25T22:14:46.888Z,-0.60
2023-01-25T22:17:15.285Z,-0.62
2023-01-25T22:19:43.660Z,-0.65
2023-01-25T22:22:11.936Z,-0.69
2023-01-25T22:24:40.329Z,-0.72
2023-01-25T22:27:09.017Z,-0.75
2023-01-25T22:29:37.299Z,-0.77
2023-01-25T22:32:05.994Z,-0.78
2023-01-25T22:34:34.581Z,-0.77
2023-01-25T22:37:02.765Z,-0.78
2023-01-25T22:39:30.940Z,-0.76
2023-01-25T22:41:59.218Z,-0.74
2023-01-25T22:44:27.606Z,-0.74
2023-01-25T22:46:56.602Z,-0.73
2023-01-25T22:49:24.997Z,-0.71
2023-01-25T22:51:53.185Z,-0.71
2023-01-25T22:54:21.344Z,-0.66
2023-01-25T22:56:49.739Z,-0.58
2023-01-25T22:59:19.557Z,-0.50
2023-01-25T23:01:47.929Z,-0.42
2023-01-25T23:04:16.678Z,-0.36
2023-01-25T23:06:45.107Z,-0.31
2023-01-25T23:09:13.494Z,-0.30
2023-01-25T23:11:41.993Z,-0.27
2023-01-25T23:14:31.146Z,-0.26
2023-01-25T23:17:18.367Z,-0.28
2023-01-25T23:19:47.153Z,-0.25
2023-01-25T23:22:15.327Z,-0.24
2023-01-25T23:24:43.914Z,-0.21
2023-01-25T23:27:12.813Z,-0.22
2023-01-25T23:29:41.501Z,-0.23
2023-01-25T23:32:09.889Z,-0.23
2023-01-25T23:34:40.421Z,-0.26
2023-01-25T23:37:08.919Z,-0.30
2023-01-25T23:39:37.930Z,-0.35
2023-01-25T23:42:06.203Z,-0.37
2023-01-25T23:44:34.475Z,-0.40
2023-01-25T23:47:03.370Z,-0.43
2023-01-25T23:49:31.752Z,-0.44
2023-01-25T23:52:00.242Z,-0.45
2023-01-25T23:54:28.527Z,-0.46
2023-01-25T23:56:57.003Z,-0.47
2023-01-25T23:59:26.107Z,-0.52
